Terminal Aerodrome Forecast
Issued by NWS

Current Version | Previous Version | Text Only | Print | Product List | Glossary Off
Versions: 1 2 3 4 5 6 7 8 9 10 11 12 13 14 15 16 17 18 19 20 21 22 23 24 25 26 27 28 29 30 31 32 33

454
FTUS41 KRNK 111544 AAA
TAFLWB
TAF AMD
KLWB 111544Z 1116/1212 31010G18KT P6SM SCT020 BKN030
     FM112300 VRB03KT P6SM SCT030
     FM120900 VRB03KT P6SM BKN035 OVC100=

USA.gov is the U.S. government's official web portal to all federal, state and local government web resources and services.